createdAt,value
2022-08-08T00:01:08.164Z,6.15
2022-08-08T00:06:28.760Z,6.22
2022-08-08T00:12:07.683Z,6.45
2022-08-08T00:17:23.503Z,5.90
2022-08-08T00:22:32.236Z,6.82
2022-08-08T00:27:37.554Z,6.38
2022-08-08T00:32:55.998Z,6.65
2022-08-08T00:38:31.477Z,6.28
2022-08-08T00:44:01.373Z,5.82
2022-08-08T00:49:42.294Z,7.20
2022-08-08T00:55:16.966Z,6.80
2022-08-08T01:00:26.562Z,6.82
2022-08-08T01:11:37.767Z,7.05
2022-08-08T01:17:13.156Z,7.03
2022-08-08T01:22:48.694Z,7.38
2022-08-08T01:28:06.229Z,6.38
2022-08-08T01:33:24.029Z,6.20
2022-08-08T01:39:02.392Z,6.87
2022-08-08T01:44:23.387Z,6.30
2022-08-08T01:49:44.989Z,6.78
2022-08-08T01:55:26.746Z,6.88
2022-08-08T02:00:58.234Z,6.40
2022-08-08T02:06:31.598Z,6.43
2022-08-08T02:11:59.029Z,6.05
2022-08-08T02:17:20.471Z,6.43
2022-08-08T02:22:52.949Z,6.28
2022-08-08T02:28:09.922Z,6.60
2022-08-08T02:34:09.232Z,6.95
2022-08-08T02:39:41.322Z,6.38
2022-08-08T02:45:26.460Z,8.60
2022-08-08T02:51:11.701Z,9.43
2022-08-08T02:56:44.688Z,9.80
2022-08-08T03:01:58.459Z,9.13
2022-08-08T03:07:41.704Z,8.93
2022-08-08T03:15:53.969Z,8.68
2022-08-08T03:18:53.842Z,8.30
2022-08-08T03:24:01.797Z,7.72
2022-08-08T03:29:16.868Z,8.30
2022-08-08T03:34:23.379Z,7.93
2022-08-08T03:39:29.419Z,7.82
2022-08-08T03:44:33.843Z,7.43
2022-08-08T03:49:59.115Z,8.02
2022-08-08T03:55:19.806Z,8.00
2022-08-08T04:00:27.452Z,8.30
2022-08-08T04:05:47.185Z,8.38
2022-08-08T04:11:00.042Z,9.07
2022-08-08T04:16:05.377Z,10.23
2022-08-08T04:21:12.460Z,8.13
2022-08-08T04:26:16.209Z,8.15
2022-08-08T04:31:30.718Z,8.27
2022-08-08T04:36:41.020Z,8.82
2022-08-08T04:41:43.171Z,8.02
2022-08-08T04:46:45.295Z,8.95
2022-08-08T04:51:56.961Z,8.13
2022-08-08T04:57:00.277Z,7.82
2022-08-08T05:02:03.105Z,8.30
2022-08-08T05:07:07.588Z,7.80
2022-08-08T05:12:10.286Z,7.82
2022-08-08T05:17:23.431Z,7.95
2022-08-08T05:22:27.625Z,8.73
2022-08-08T05:27:33.535Z,8.88
2022-08-08T05:32:44.488Z,8.23
2022-08-08T05:38:29.312Z,9.25
2022-08-08T05:44:02.244Z,9.20
2022-08-08T05:48:55.209Z,8.05
2022-08-08T05:54:26.839Z,7.75
2022-08-08T05:59:58.764Z,7.03
2022-08-08T06:04:57.824Z,7.97
2022-08-08T06:10:06.239Z,7.60
2022-08-08T06:15:12.592Z,7.60
2022-08-08T06:20:20.928Z,6.63
2022-08-08T06:26:35.008Z,7.53
2022-08-08T06:30:50.874Z,6.88
2022-08-08T06:36:07.069Z,7.07
2022-08-08T06:41:17.462Z,6.50
2022-08-08T06:46:23.829Z,6.60
2022-08-08T06:51:46.717Z,6.28
2022-08-08T06:56:53.745Z,6.30
2022-08-08T07:02:26.792Z,5.78
2022-08-08T07:07:51.617Z,5.75
2022-08-08T07:13:08.106Z,4.93
2022-08-08T07:18:41.055Z,4.28
2022-08-08T07:24:03.349Z,3.17
2022-08-08T07:30:00.114Z,2.20
2022-08-08T07:34:37.115Z,2.28
2022-08-08T07:39:57.958Z,2.00
2022-08-08T07:45:06.402Z,2.00
2022-08-08T07:50:12.568Z,2.00
2022-08-08T07:55:28.533Z,2.10
2022-08-08T08:00:43.155Z,1.77
2022-08-08T08:05:53.579Z,1.85
2022-08-08T08:11:00.566Z,1.90
2022-08-08T08:16:09.731Z,1.50
2022-08-08T08:21:19.864Z,1.73
2022-08-08T08:26:37.924Z,1.70
2022-08-08T08:31:41.613Z,1.65
2022-08-08T08:36:51.541Z,1.50
2022-08-08T08:41:58.431Z,1.52
2022-08-08T08:47:02.825Z,1.35
2022-08-08T08:52:10.104Z,1.58
2022-08-08T08:57:15.790Z,1.25
2022-08-08T09:02:24.372Z,1.50
2022-08-08T09:07:38.711Z,1.20
2022-08-08T09:12:47.390Z,1.55
2022-08-08T09:17:55.208Z,1.40
2022-08-08T09:23:01.073Z,1.10
2022-08-08T09:28:04.380Z,1.35
2022-08-08T09:33:54.022Z,1.30
2022-08-08T09:38:53.567Z,1.35
2022-08-08T09:44:04.577Z,1.00
2022-08-08T10:00:02.318Z,0.90
2022-08-08T10:05:15.110Z,0.90
2022-08-08T10:10:50.866Z,1.00
2022-08-08T10:15:59.400Z,1.30
2022-08-08T10:21:22.925Z,0.90
2022-08-08T10:26:58.709Z,0.90
2022-08-08T10:32:21.826Z,0.90
2022-08-08T10:37:28.298Z,1.00
2022-08-08T10:42:35.058Z,1.20
2022-08-08T10:47:43.985Z,1.00
2022-08-08T10:57:53.038Z,0.70
2022-08-08T11:02:57.112Z,0.85
2022-08-08T11:08:37.793Z,0.68
2022-08-08T11:13:29.637Z,0.73
2022-08-08T11:18:34.712Z,1.10
2022-08-08T11:23:41.170Z,0.80
2022-08-08T11:28:47.803Z,1.00
2022-08-08T11:34:03.686Z,1.02
2022-08-08T11:39:20.043Z,1.05
2022-08-08T11:44:29.075Z,0.77
2022-08-08T11:49:32.199Z,1.08
2022-08-08T11:54:38.246Z,0.93
2022-08-08T12:00:05.576Z,0.80
2022-08-08T12:05:19.025Z,1.00
2022-08-08T12:10:27.803Z,1.00
2022-08-08T12:15:42.204Z,0.90
2022-08-08T12:20:46.444Z,1.08
2022-08-08T12:25:55.019Z,0.90
2022-08-08T12:31:06.326Z,1.45
2022-08-08T12:36:16.413Z,0.90
2022-08-08T12:41:35.230Z,1.25
2022-08-08T12:47:00.126Z,1.10
2022-08-08T12:52:04.606Z,0.98
2022-08-08T12:57:21.299Z,0.93
2022-08-08T13:02:31.475Z,0.93
2022-08-08T13:08:02.105Z,1.00
2022-08-08T13:13:06.177Z,0.90
2022-08-08T13:18:13.780Z,0.80
2022-08-08T13:23:31.101Z,0.88
2022-08-08T13:28:42.306Z,0.73
2022-08-08T13:33:49.819Z,0.85
2022-08-08T13:38:52.491Z,0.70
2022-08-08T13:43:54.741Z,0.70
2022-08-08T13:49:11.643Z,0.82
2022-08-08T13:54:22.987Z,0.88
2022-08-08T13:59:39.500Z,0.75
2022-08-08T14:05:20.372Z,0.70
2022-08-08T14:10:32.682Z,0.82
2022-08-08T14:15:50.196Z,0.60
2022-08-08T14:21:01.505Z,0.70
2022-08-08T14:26:10.889Z,0.63
2022-08-08T14:31:23.555Z,0.60
2022-08-08T14:36:40.443Z,0.95
2022-08-08T14:41:53.380Z,0.90
2022-08-08T14:47:01.328Z,0.88
2022-08-08T14:52:08.367Z,0.90
2022-08-08T14:57:10.672Z,0.80
2022-08-08T15:02:15.368Z,0.80
2022-08-08T15:07:22.919Z,0.68
2022-08-08T15:12:41.088Z,1.23
2022-08-08T15:17:47.557Z,1.20
2022-08-08T15:22:50.716Z,0.90
2022-08-08T15:28:04.913Z,0.70
2022-08-08T15:33:35.128Z,0.80
2022-08-08T15:38:40.572Z,0.80
2022-08-08T15:44:01.204Z,0.57
2022-08-08T15:49:06.496Z,0.70
2022-08-08T15:54:37.352Z,0.90
2022-08-08T16:00:06.437Z,0.85
2022-08-08T16:04:54.509Z,0.73
2022-08-08T16:13:15.513Z,0.80
2022-08-08T16:15:23.328Z,1.50
2022-08-08T16:20:25.635Z,0.85
2022-08-08T16:25:46.370Z,1.50
2022-08-08T16:30:54.105Z,0.77
2022-08-08T16:35:56.263Z,1.00
2022-08-08T16:41:01.875Z,1.75
2022-08-08T16:46:43.647Z,1.90
2022-08-08T16:55:02.367Z,0.68
2022-08-08T16:57:01.541Z,0.55
2022-08-08T17:02:12.428Z,0.90
2022-08-08T17:07:29.150Z,0.77
2022-08-08T17:12:31.407Z,0.60
2022-08-08T17:18:01.313Z,1.20
2022-08-08T17:23:18.236Z,1.20
2022-08-08T17:28:34.931Z,1.33
2022-08-08T17:34:36.543Z,1.00
2022-08-08T17:39:05.094Z,0.90
2022-08-08T17:44:22.021Z,1.00
2022-08-08T17:49:38.288Z,1.08
2022-08-08T17:54:47.857Z,0.80
2022-08-08T18:00:01.601Z,0.80
2022-08-08T18:05:06.928Z,0.85
2022-08-08T18:10:09.288Z,1.38
2022-08-08T18:15:12.988Z,1.20
2022-08-08T18:20:36.920Z,1.30
2022-08-08T18:25:37.765Z,0.90
2022-08-08T18:30:42.880Z,0.85
2022-08-08T18:35:48.412Z,0.95
2022-08-08T18:40:51.019Z,0.90
2022-08-08T18:46:56.114Z,1.00
2022-08-08T18:51:48.433Z,1.33
2022-08-08T18:56:43.993Z,1.00
2022-08-08T19:02:26.306Z,0.95
2022-08-08T19:07:08.067Z,0.93
2022-08-08T19:12:13.349Z,1.15
2022-08-08T19:17:29.463Z,1.45
2022-08-08T19:22:38.284Z,0.98
2022-08-08T19:27:55.574Z,1.23
2022-08-08T19:33:00.698Z,1.20
2022-08-08T19:38:03.288Z,1.10
2022-08-08T19:43:11.662Z,1.10
2022-08-08T19:48:29.096Z,1.00
2022-08-08T19:53:51.132Z,0.98
2022-08-08T20:04:01.986Z,0.80
2022-08-08T20:09:08.837Z,0.90
2022-08-08T20:14:35.514Z,1.30
2022-08-08T20:19:42.293Z,1.20
2022-08-08T20:24:47.884Z,1.40
2022-08-08T20:29:55.750Z,1.30
2022-08-08T20:35:04.289Z,1.63
2022-08-08T20:40:08.058Z,1.42
2022-08-08T20:45:10.556Z,1.08
2022-08-08T20:50:14.838Z,1.33
2022-08-08T20:55:25.814Z,1.50
2022-08-08T21:00:28.195Z,1.33
2022-08-08T21:05:31.678Z,1.48
2022-08-08T21:10:34.004Z,1.60
2022-08-08T21:16:05.587Z,1.33
2022-08-08T21:20:58.416Z,1.27
2022-08-08T21:26:00.527Z,1.58
2022-08-08T21:31:23.140Z,1.50
2022-08-08T21:36:29.378Z,1.58
2022-08-08T21:41:43.007Z,1.63
2022-08-08T21:48:06.604Z,1.60
2022-08-08T21:54:23.304Z,1.40
2022-08-08T21:57:42.598Z,1.70
2022-08-08T22:02:59.643Z,1.88
2022-08-08T22:08:04.078Z,1.50
2022-08-08T22:13:17.389Z,1.85
2022-08-08T22:18:21.210Z,1.77
2022-08-08T22:23:25.270Z,1.83
2022-08-08T22:29:04.645Z,2.10
2022-08-08T22:34:13.574Z,1.85
2022-08-08T22:39:19.696Z,1.55
2022-08-08T22:44:21.985Z,1.50
2022-08-08T22:49:26.061Z,1.55
2022-08-08T22:54:53.947Z,2.22
2022-08-08T22:59:58.594Z,1.80
2022-08-08T23:05:04.775Z,1.55
2022-08-08T23:10:08.695Z,1.70
2022-08-08T23:16:41.109Z,1.48
2022-08-08T23:20:33.927Z,1.45
2022-08-08T23:25:37.474Z,2.15
2022-08-08T23:30:50.686Z,1.90
2022-08-08T23:36:06.920Z,2.10
2022-08-08T23:41:12.145Z,2.13
2022-08-08T23:49:06.560Z,2.08
2022-08-08T23:52:05.300Z,2.28
2022-08-08T23:57:04.665Z,2.22
